sensor_id;sensor_type;location;lat;lon;timestamp;pressure;altitude;pressure_sealevel;temperature;humidity
60355;BME280;46198;51.464;-0.066;2022-09-04T00:02:49;101161.22;;;17.76;82.90
60355;BME280;46198;51.464;-0.066;2022-09-04T00:05:26;101158.19;;;17.72;81.86
60355;BME280;46198;51.464;-0.066;2022-09-04T00:08:23;101161.16;;;17.71;83.09
60355;BME280;46198;51.464;-0.066;2022-09-04T00:10:58;101157.03;;;17.68;83.21
60355;BME280;46198;51.464;-0.066;2022-09-04T00:13:32;101159.53;;;17.70;83.11
60355;BME280;46198;51.464;-0.066;2022-09-04T00:16:05;101161.38;;;17.64;86.05
60355;BME280;46198;51.464;-0.066;2022-09-04T00:18:40;101160.53;;;17.64;85.63
60355;BME280;46198;51.464;-0.066;2022-09-04T00:21:13;101157.03;;;17.68;85.51
60355;BME280;46198;51.464;-0.066;2022-09-04T00:23:48;101161.38;;;17.64;85.50
60355;BME280;46198;51.464;-0.066;2022-09-04T00:26:28;101150.69;;;17.68;85.68
60355;BME280;46198;51.464;-0.066;2022-09-04T00:29:04;101156.38;;;17.61;87.13
60355;BME280;46198;51.464;-0.066;2022-09-04T00:31:41;101161.94;;;17.66;86.68
60355;BME280;46198;51.464;-0.066;2022-09-04T00:34:25;101161.00;;;17.56;89.69
60355;BME280;46198;51.464;-0.066;2022-09-04T00:36:58;101155.84;;;17.59;89.34
60355;BME280;46198;51.464;-0.066;2022-09-04T00:39:35;101158.59;;;17.59;90.70
60355;BME280;46198;51.464;-0.066;2022-09-04T00:42:20;101164.63;;;17.61;90.50
60355;BME280;46198;51.464;-0.066;2022-09-04T00:45:06;101164.69;;;17.66;88.48
60355;BME280;46198;51.464;-0.066;2022-09-04T00:47:54;101174.06;;;17.70;89.08
60355;BME280;46198;51.464;-0.066;2022-09-04T00:50:39;101172.38;;;17.64;88.77
60355;BME280;46198;51.464;-0.066;2022-09-04T00:53:26;101177.22;;;17.57;90.99
60355;BME280;46198;51.464;-0.066;2022-09-04T00:56:14;101182.72;;;17.57;90.53
60355;BME280;46198;51.464;-0.066;2022-09-04T00:59:01;101188.97;;;17.53;92.14
60355;BME280;46198;51.464;-0.066;2022-09-04T01:01:32;101189.56;;;17.55;92.16
60355;BME280;46198;51.464;-0.066;2022-09-04T01:04:17;101194.75;;;17.51;93.05
60355;BME280;46198;51.464;-0.066;2022-09-04T01:06:57;101185.63;;;17.45;95.08
60355;BME280;46198;51.464;-0.066;2022-09-04T01:09:45;101193.59;;;17.47;94.12
60355;BME280;46198;51.464;-0.066;2022-09-04T01:12:28;101188.03;;;17.42;95.40
60355;BME280;46198;51.464;-0.066;2022-09-04T01:15:04;101190.25;;;17.45;94.20
60355;BME280;46198;51.464;-0.066;2022-09-04T01:17:48;101192.97;;;17.40;96.31
60355;BME280;46198;51.464;-0.066;2022-09-04T01:20:26;101189.66;;;17.38;95.74
60355;BME280;46198;51.464;-0.066;2022-09-04T01:23:17;101194.63;;;17.41;93.89
60355;BME280;46198;51.464;-0.066;2022-09-04T01:26:07;101193.28;;;17.43;93.40
60355;BME280;46198;51.464;-0.066;2022-09-04T01:28:46;101194.03;;;17.39;93.36
60355;BME280;46198;51.464;-0.066;2022-09-04T01:31:20;101190.53;;;17.43;92.92
60355;BME280;46198;51.464;-0.066;2022-09-04T01:33:57;101192.84;;;17.30;95.74
60355;BME280;46198;51.464;-0.066;2022-09-04T01:36:34;101200.25;;;17.29;96.91
60355;BME280;46198;51.464;-0.066;2022-09-04T01:39:03;101194.41;;;17.25;95.67
60355;BME280;46198;51.464;-0.066;2022-09-04T01:41:34;101191.44;;;17.27;96.12
60355;BME280;46198;51.464;-0.066;2022-09-04T01:44:07;101188.56;;;17.17;98.42
60355;BME280;46198;51.464;-0.066;2022-09-04T01:46:45;101190.09;;;17.30;94.88
60355;BME280;46198;51.464;-0.066;2022-09-04T01:49:26;101198.19;;;17.19;96.68
60355;BME280;46198;51.464;-0.066;2022-09-04T01:52:25;101191.53;;;17.15;97.79
60355;BME280;46198;51.464;-0.066;2022-09-04T01:55:12;101195.38;;;17.14;97.61
60355;BME280;46198;51.464;-0.066;2022-09-04T01:57:55;101192.19;;;17.22;97.03
60355;BME280;46198;51.464;-0.066;2022-09-04T02:00:30;101200.69;;;17.21;97.96
60355;BME280;46198;51.464;-0.066;2022-09-04T02:03:05;101200.13;;;17.19;98.31
60355;BME280;46198;51.464;-0.066;2022-09-04T02:05:44;101197.63;;;17.17;99.83
60355;BME280;46198;51.464;-0.066;2022-09-04T02:08:28;101204.50;;;17.20;99.84
60355;BME280;46198;51.464;-0.066;2022-09-04T02:11:03;101203.88;;;17.13;100.00
60355;BME280;46198;51.464;-0.066;2022-09-04T02:13:43;101208.28;;;17.14;100.00
60355;BME280;46198;51.464;-0.066;2022-09-04T02:16:17;101204.19;;;17.16;100.00
60355;BME280;46198;51.464;-0.066;2022-09-04T02:18:56;101201.16;;;17.13;100.00
60355;BME280;46198;51.464;-0.066;2022-09-04T02:21:35;101198.72;;;17.16;100.00
60355;BME280;46198;51.464;-0.066;2022-09-04T02:24:12;101198.63;;;17.11;100.00
60355;BME280;46198;51.464;-0.066;2022-09-04T02:26:50;101195.97;;;17.16;100.00
60355;BME280;46198;51.464;-0.066;2022-09-04T02:29:26;101205.59;;;17.19;100.00
60355;BME280;46198;51.464;-0.066;2022-09-04T02:32:02;101202.03;;;17.18;100.00
60355;BME280;46198;51.464;-0.066;2022-09-04T02:34:39;101209.09;;;17.14;100.00
60355;BME280;46198;51.464;-0.066;2022-09-04T02:37:15;101200.03;;;17.14;100.00
60355;BME280;46198;51.464;-0.066;2022-09-04T02:39:56;101210.50;;;17.17;100.00
60355;BME280;46198;51.464;-0.066;2022-09-04T02:42:32;101201.69;;;17.15;100.00
60355;BME280;46198;51.464;-0.066;2022-09-04T02:45:18;101205.25;;;17.15;100.00
60355;BME280;46198;51.464;-0.066;2022-09-04T02:47:58;101207.00;;;17.21;100.00
60355;BME280;46198;51.464;-0.066;2022-09-04T02:50:41;101203.16;;;17.22;100.00
60355;BME280;46198;51.464;-0.066;2022-09-04T02:53:22;101198.72;;;17.16;100.00
60355;BME280;46198;51.464;-0.066;2022-09-04T02:56:02;101196.03;;;17.21;100.00
60355;BME280;46198;51.464;-0.066;2022-09-04T02:58:42;101202.34;;;17.22;100.00
60355;BME280;46198;51.464;-0.066;2022-09-04T03:01:23;101211.69;;;17.21;100.00
60355;BME280;46198;51.464;-0.066;2022-09-04T03:03:59;101204.00;;;17.23;100.00
60355;BME280;46198;51.464;-0.066;2022-09-04T03:06:42;101202.03;;;17.18;100.00
60355;BME280;46198;51.464;-0.066;2022-09-04T03:09:18;101199.53;;;17.17;100.00
60355;BME280;46198;51.464;-0.066;2022-09-04T03:11:53;101206.19;;;17.21;100.00
60355;BME280;46198;51.464;-0.066;2022-09-04T03:14:28;101205.09;;;17.22;100.00
60355;BME280;46198;51.464;-0.066;2022-09-04T03:17:05;101207.53;;;17.18;100.00
60355;BME280;46198;51.464;-0.066;2022-09-04T03:19:42;101210.59;;;17.22;100.00
60355;BME280;46198;51.464;-0.066;2022-09-04T03:22:18;101213.50;;;17.15;100.00
60355;BME280;46198;51.464;-0.066;2022-09-04T03:25:01;101209.69;;;17.16;100.00
60355;BME280;46198;51.464;-0.066;2022-09-04T03:27:33;101211.84;;;17.14;100.00
60355;BME280;46198;51.464;-0.066;2022-09-04T03:30:05;101209.53;;;17.28;100.00
60355;BME280;46198;51.464;-0.066;2022-09-04T03:32:42;101218.75;;;17.17;100.00
60355;BME280;46198;51.464;-0.066;2022-09-04T03:35:18;101214.22;;;17.27;100.00
60355;BME280;46198;51.464;-0.066;2022-09-04T03:38:13;101207.00;;;17.21;100.00
60355;BME280;46198;51.464;-0.066;2022-09-04T03:40:49;101204.63;;;17.30;100.00
60355;BME280;46198;51.464;-0.066;2022-09-04T03:43:52;101206.81;;;17.28;100.00
60355;BME280;46198;51.464;-0.066;2022-09-04T03:46:34;101207.84;;;17.22;100.00
60355;BME280;46198;51.464;-0.066;2022-09-04T03:49:13;101209.69;;;17.16;100.00
60355;BME280;46198;51.464;-0.066;2022-09-04T03:51:54;101211.41;;;17.22;100.00
60355;BME280;46198;51.464;-0.066;2022-09-04T03:54:37;101216.88;;;17.22;100.00
60355;BME280;46198;51.464;-0.066;2022-09-04T03:57:22;101217.19;;;17.26;100.00
60355;BME280;46198;51.464;-0.066;2022-09-04T04:00:03;101216.31;;;17.20;100.00
60355;BME280;46198;51.464;-0.066;2022-09-04T04:02:54;101212.28;;;17.28;100.00
60355;BME280;46198;51.464;-0.066;2022-09-04T04:05:27;101219.69;;;17.27;100.00
60355;BME280;46198;51.464;-0.066;2022-09-04T04:08:11;101216.38;;;17.25;100.00
60355;BME280;46198;51.464;-0.066;2022-09-04T04:10:51;101216.44;;;17.31;100.00
60355;BME280;46198;51.464;-0.066;2022-09-04T04:13:48;101219.94;;;17.26;100.00
60355;BME280;46198;51.464;-0.066;2022-09-04T04:16:30;101218.00;;;17.21;100.00
60355;BME280;46198;51.464;-0.066;2022-09-04T04:19:27;101210.38;;;17.28;100.00
60355;BME280;46198;51.464;-0.066;2022-09-04T04:22:18;101207.31;;;17.25;100.00
60355;BME280;46198;51.464;-0.066;2022-09-04T04:25:03;101210.97;;;17.31;100.00
60355;BME280;46198;51.464;-0.066;2022-09-04T04:27:47;101210.19;;;17.13;100.00
60355;BME280;46198;51.464;-0.066;2022-09-04T04:30:20;101221.28;;;17.23;100.00
60355;BME280;46198;51.464;-0.066;2022-09-04T04:33:13;101221.94;;;17.31;100.00
60355;BME280;46198;51.464;-0.066;2022-09-04T04:35:47;101219.78;;;17.33;100.00
60355;BME280;46198;51.464;-0.066;2022-09-04T04:38:36;101226.41;;;17.37;100.00
60355;BME280;46198;51.464;-0.066;2022-09-04T04:41:29;101230.75;;;17.33;100.00
60355;BME280;46198;51.464;-0.066;2022-09-04T04:44:24;101229.94;;;17.32;100.00
60355;BME280;46198;51.464;-0.066;2022-09-04T04:47:21;101228.31;;;17.36;100.00
60355;BME280;46198;51.464;-0.066;2022-09-04T04:50:05;101223.59;;;17.32;100.00
60355;BME280;46198;51.464;-0.066;2022-09-04T04:52:46;101219.78;;;17.33;100.00
60355;BME280;46198;51.464;-0.066;2022-09-04T04:55:31;101221.69;;;17.32;100.00
60355;BME280;46198;51.464;-0.066;2022-09-04T04:58:23;101220.84;;;17.32;100.00
60355;BME280;46198;51.464;-0.066;2022-09-04T05:01:02;101232.47;;;17.39;100.00
60355;BME280;46198;51.464;-0.066;2022-09-04T05:03:37;101235.22;;;17.39;100.00
60355;BME280;46198;51.464;-0.066;2022-09-04T05:06:13;101227.56;;;17.41;100.00
60355;BME280;46198;51.464;-0.066;2022-09-04T05:08:48;101241.34;;;17.46;100.00
60355;BME280;46198;51.464;-0.066;2022-09-04T05:11:22;101238.84;;;17.44;100.00
60355;BME280;46198;51.464;-0.066;2022-09-04T05:14:01;101244.69;;;17.48;100.00
60355;BME280;46198;51.464;-0.066;2022-09-04T05:16:35;101241.34;;;17.46;100.00
60355;BME280;46198;51.464;-0.066;2022-09-04T05:19:16;101250.19;;;17.53;100.00
60355;BME280;46198;51.464;-0.066;2022-09-04T05:21:52;101253.41;;;17.45;100.00
60355;BME280;46198;51.464;-0.066;2022-09-04T05:24:29;101254.56;;;17.49;100.00
60355;BME280;46198;51.464;-0.066;2022-09-04T05:27:08;101257.31;;;17.49;100.00
60355;BME280;46198;51.464;-0.066;2022-09-04T05:29:44;101258.44;;;17.53;100.00
60355;BME280;46198;51.464;-0.066;2022-09-04T05:32:22;101255.75;;;17.58;100.00
60355;BME280;46198;51.464;-0.066;2022-09-04T05:35:00;101254.09;;;17.57;100.00
60355;BME280;46198;51.464;-0.066;2022-09-04T05:37:35;101264.50;;;17.55;100.00
60355;BME280;46198;51.464;-0.066;2022-09-04T05:40:11;101262.34;;;17.57;100.00
60355;BME280;46198;51.464;-0.066;2022-09-04T05:42:53;101259.59;;;17.57;100.00
60355;BME280;46198;51.464;-0.066;2022-09-04T05:45:38;101260.19;;;17.59;100.00
60355;BME280;46198;51.464;-0.066;2022-09-04T05:48:19;101267.91;;;17.62;100.00
60355;BME280;46198;51.464;-0.066;2022-09-04T05:51:05;101272.06;;;17.65;100.00
60355;BME280;46198;51.464;-0.066;2022-09-04T05:54:02;101267.91;;;17.62;100.00
60355;BME280;46198;51.464;-0.066;2022-09-04T05:56:57;101277.78;;;17.63;100.00
60355;BME280;46198;51.464;-0.066;2022-09-04T06:03:01;101287.25;;;17.72;100.00
60355;BME280;46198;51.464;-0.066;2022-09-04T06:05:42;101291.06;;;17.71;100.00
60355;BME280;46198;51.464;-0.066;2022-09-04T06:08:21;101288.31;;;17.71;100.00
60355;BME280;46198;51.464;-0.066;2022-09-04T06:11:04;101291.66;;;17.73;100.00
60355;BME280;46198;51.464;-0.066;2022-09-04T06:13:56;101303.75;;;17.72;100.00
60355;BME280;46198;51.464;-0.066;2022-09-04T06:16:59;101300.47;;;17.76;100.00
60355;BME280;46198;51.464;-0.066;2022-09-04T06:19:39;101312.63;;;17.80;100.00
60355;BME280;46198;51.464;-0.066;2022-09-04T06:22:25;101316.47;;;17.79;100.00
60355;BME280;46198;51.464;-0.066;2022-09-04T06:25:20;101312.69;;;17.85;100.00
60355;BME280;46198;51.464;-0.066;2022-09-04T06:28:06;101311.66;;;17.91;100.00
60355;BME280;46198;51.464;-0.066;2022-09-04T06:30:45;101316.59;;;17.89;100.00
60355;BME280;46198;51.464;-0.066;2022-09-04T06:33:50;101316.63;;;17.94;100.00
60355;BME280;46198;51.464;-0.066;2022-09-04T06:36:42;101322.19;;;17.99;100.00
60355;BME280;46198;51.464;-0.066;2022-09-04T06:39:42;101326.16;;;18.08;100.00
60355;BME280;46198;51.464;-0.066;2022-09-04T06:42:27;101325.00;;;18.04;100.00
60355;BME280;46198;51.464;-0.066;2022-09-04T06:45:14;101327.81;;;18.09;100.00
60355;BME280;46198;51.464;-0.066;2022-09-04T06:47:59;101325.41;;;18.18;100.00
60355;BME280;46198;51.464;-0.066;2022-09-04T06:50:35;101322.94;;;18.16;100.00
60355;BME280;46198;51.464;-0.066;2022-09-04T06:53:21;101320.31;;;18.27;100.00
60355;BME280;46198;51.464;-0.066;2022-09-04T06:56:05;101324.41;;;18.24;100.00
60355;BME280;46198;51.464;-0.066;2022-09-04T07:01:48;101334.06;;;18.32;100.00
60355;BME280;46198;51.464;-0.066;2022-09-04T07:04:31;101331.38;;;18.37;100.00
60355;BME280;46198;51.464;-0.066;2022-09-04T07:07:08;101330.59;;;18.42;100.00
60355;BME280;46198;51.464;-0.066;2022-09-04T07:09:42;101332.00;;;18.44;100.00
60355;BME280;46198;51.464;-0.066;2022-09-04T07:12:30;101337.56;;;18.49;100.00
60355;BME280;46198;51.464;-0.066;2022-09-04T07:15:15;101339.00;;;18.57;100.00
60355;BME280;46198;51.464;-0.066;2022-09-04T07:17:55;101342.00;;;18.55;100.00
60355;BME280;46198;51.464;-0.066;2022-09-04T07:20:32;101343.66;;;18.56;100.00
60355;BME280;46198;51.464;-0.066;2022-09-04T07:23:22;101341.50;;;18.58;100.00
60355;BME280;46198;51.464;-0.066;2022-09-04T07:25:59;101340.09;;;18.56;100.00
60355;BME280;46198;51.464;-0.066;2022-09-04T07:28:40;101345.13;;;18.64;100.00
60355;BME280;46198;51.464;-0.066;2022-09-04T07:31:10;101345.13;;;18.64;100.00
60355;BME280;46198;51.464;-0.066;2022-09-04T07:33:49;101350.38;;;18.66;100.00
60355;BME280;46198;51.464;-0.066;2022-09-04T07:36:19;101351.09;;;18.56;100.00
60355;BME280;46198;51.464;-0.066;2022-09-04T07:39:06;101344.88;;;18.66;100.00
60355;BME280;46198;51.464;-0.066;2022-09-04T07:41:41;101352.06;;;18.72;99.51
60355;BME280;46198;51.464;-0.066;2022-09-04T07:44:16;101355.91;;;18.71;99.66
60355;BME280;46198;51.464;-0.066;2022-09-04T07:46:51;101367.03;;;18.81;97.61
60355;BME280;46198;51.464;-0.066;2022-09-04T07:49:33;101363.50;;;18.86;96.79
60355;BME280;46198;51.464;-0.066;2022-09-04T07:52:15;101366.03;;;18.92;97.08
60355;BME280;46198;51.464;-0.066;2022-09-04T07:55:02;101372.41;;;18.98;95.22
60355;BME280;46198;51.464;-0.066;2022-09-04T07:57:48;101369.94;;;19.01;95.33
60355;BME280;46198;51.464;-0.066;2022-09-04T08:00:19;101372.50;;;19.08;95.63
60355;BME280;46198;51.464;-0.066;2022-09-04T08:03:02;101373.06;;;19.15;93.45
60355;BME280;46198;51.464;-0.066;2022-09-04T08:05:40;101367.91;;;19.24;94.92
60355;BME280;46198;51.464;-0.066;2022-09-04T08:08:31;101369.59;;;19.25;91.00
60355;BME280;46198;51.464;-0.066;2022-09-04T08:11:14;101363.25;;;19.30;91.33
60355;BME280;46198;51.464;-0.066;2022-09-04T08:14:08;101372.41;;;19.35;91.47
60355;BME280;46198;51.464;-0.066;2022-09-04T08:16:50;101365.28;;;19.44;91.34
60355;BME280;46198;51.464;-0.066;2022-09-04T08:19:32;101374.41;;;19.50;88.93
60355;BME280;46198;51.464;-0.066;2022-09-04T08:22:10;101372.59;;;19.66;89.98
60355;BME280;46198;51.464;-0.066;2022-09-04T08:24:55;101372.13;;;19.79;87.14
60355;BME280;46198;51.464;-0.066;2022-09-04T08:27:49;101374.94;;;19.95;85.73
60355;BME280;46198;51.464;-0.066;2022-09-04T08:30:20;101370.28;;;20.05;86.78
60355;BME280;46198;51.464;-0.066;2022-09-04T08:33:17;101372.84;;;20.27;84.54
60355;BME280;46198;51.464;-0.066;2022-09-04T08:35:56;101375.38;;;20.44;83.48
60355;BME280;46198;51.464;-0.066;2022-09-04T08:39:02;101371.78;;;20.49;79.85
60355;BME280;46198;51.464;-0.066;2022-09-04T08:42:06;101381.22;;;20.58;81.91
60355;BME280;46198;51.464;-0.066;2022-09-04T08:48:27;101371.00;;;20.84;77.30
60355;BME280;46198;51.464;-0.066;2022-09-04T08:57:41;101399.16;;;20.81;75.76
60355;BME280;46198;51.464;-0.066;2022-09-04T09:00:12;101402.50;;;20.83;74.31
60355;BME280;46198;51.464;-0.066;2022-09-04T09:06:14;101402.22;;;20.85;74.19
60355;BME280;46198;51.464;-0.066;2022-09-04T09:18:34;101419.59;;;20.70;75.88
60355;BME280;46198;51.464;-0.066;2022-09-04T09:21:09;101417.38;;;20.72;75.27
60355;BME280;46198;51.464;-0.066;2022-09-04T09:24:09;101420.97;;;20.67;75.63
60355;BME280;46198;51.464;-0.066;2022-09-04T09:26:54;101433.66;;;20.68;76.34
60355;BME280;46198;51.464;-0.066;2022-09-04T09:29:48;101443.03;;;20.67;75.83
60355;BME280;46198;51.464;-0.066;2022-09-04T09:36:02;101447.75;;;20.72;77.12
60355;BME280;46198;51.464;-0.066;2022-09-04T09:38:48;101452.16;;;20.73;77.27
60355;BME280;46198;51.464;-0.066;2022-09-04T09:41:36;101451.31;;;20.72;76.87
60355;BME280;46198;51.464;-0.066;2022-09-04T09:44:33;101454.06;;;20.67;74.22
60355;BME280;46198;51.464;-0.066;2022-09-04T09:47:36;101461.53;;;20.72;75.07
60355;BME280;46198;51.464;-0.066;2022-09-04T10:00:14;101455.78;;;20.89;71.89
60355;BME280;46198;51.464;-0.066;2022-09-04T10:03:23;101460.75;;;20.92;71.33
60355;BME280;46198;51.464;-0.066;2022-09-04T10:12:33;101460.72;;;20.81;72.98
60355;BME280;46198;51.464;-0.066;2022-09-04T10:15:38;101465.72;;;20.95;72.38
60355;BME280;46198;51.464;-0.066;2022-09-04T10:18:30;101472.34;;;20.89;71.98
60355;BME280;46198;51.464;-0.066;2022-09-04T10:21:49;101457.44;;;21.00;73.04
60355;BME280;46198;51.464;-0.066;2022-09-04T10:27:53;101468.22;;;21.27;69.97
60355;BME280;46198;51.464;-0.066;2022-09-04T10:30:48;101470.41;;;21.35;68.59
60355;BME280;46198;51.464;-0.066;2022-09-04T10:33:26;101469.63;;;21.45;66.54
60355;BME280;46198;51.464;-0.066;2022-09-04T10:36:11;101477.91;;;21.50;67.01
60355;BME280;46198;51.464;-0.066;2022-09-04T10:38:45;101475.41;;;21.69;67.38
60355;BME280;46198;51.464;-0.066;2022-09-04T10:42:08;101474.28;;;21.75;69.11
60355;BME280;46198;51.464;-0.066;2022-09-04T10:44:43;101477.31;;;21.79;65.17
60355;BME280;46198;51.464;-0.066;2022-09-04T10:47:21;101472.34;;;21.76;65.57
60355;BME280;46198;51.464;-0.066;2022-09-04T10:50:15;101462.41;;;21.69;63.45
60355;BME280;46198;51.464;-0.066;2022-09-04T10:53:17;101464.63;;;21.62;62.47
60355;BME280;46198;51.464;-0.066;2022-09-04T10:56:03;101478.44;;;21.73;60.78
60355;BME280;46198;51.464;-0.066;2022-09-04T10:58:43;101476.25;;;21.69;60.56
60355;BME280;46198;51.464;-0.066;2022-09-04T11:01:45;101478.44;;;21.67;61.56
60355;BME280;46198;51.464;-0.066;2022-09-04T11:11:04;101479.25;;;21.88;62.76
60355;BME280;46198;51.464;-0.066;2022-09-04T11:16:46;101485.00;;;21.97;61.80
60355;BME280;46198;51.464;-0.066;2022-09-04T11:19:28;101479.97;;;22.14;62.68
60355;BME280;46198;51.464;-0.066;2022-09-04T11:22:31;101481.66;;;22.21;62.52
60355;BME280;46198;51.464;-0.066;2022-09-04T11:25:25;101479.97;;;22.30;63.33
60355;BME280;46198;51.464;-0.066;2022-09-04T11:28:10;101475.75;;;22.43;62.34
60355;BME280;46198;51.464;-0.066;2022-09-04T11:31:01;101484.22;;;22.67;62.44
60355;BME280;46198;51.464;-0.066;2022-09-04T11:40:18;101488.09;;;22.61;62.70
60355;BME280;46198;51.464;-0.066;2022-09-04T11:43:05;101482.16;;;22.83;61.65
60355;BME280;46198;51.464;-0.066;2022-09-04T11:46:02;101493.00;;;22.79;60.00
60355;BME280;46198;51.464;-0.066;2022-09-04T11:52:11;101489.25;;;23.04;59.93
60355;BME280;46198;51.464;-0.066;2022-09-04T11:55:06;101493.91;;;23.14;60.17
60355;BME280;46198;51.464;-0.066;2022-09-04T11:57:51;101493.28;;;23.22;60.90
60355;BME280;46198;51.464;-0.066;2022-09-04T12:00:23;101492.16;;;23.23;59.14
60355;BME280;46198;51.464;-0.066;2022-09-04T12:06:12;101490.19;;;23.58;57.31
60355;BME280;46198;51.464;-0.066;2022-09-04T12:09:20;101486.91;;;23.85;57.58
60355;BME280;46198;51.464;-0.066;2022-09-04T12:12:09;101491.44;;;24.05;56.91
60355;BME280;46198;51.464;-0.066;2022-09-04T12:15:00;101490.34;;;24.01;58.49
60355;BME280;46198;51.464;-0.066;2022-09-04T12:20:51;101484.69;;;23.87;56.76
60355;BME280;46198;51.464;-0.066;2022-09-04T12:27:13;101492.69;;;23.88;57.40
60355;BME280;46198;51.464;-0.066;2022-09-04T12:30:03;101495.47;;;23.59;57.63
60355;BME280;46198;51.464;-0.066;2022-09-04T12:33:13;101491.88;;;23.59;58.10
60355;BME280;46198;51.464;-0.066;2022-09-04T12:36:09;101493.66;;;23.44;58.12
60355;BME280;46198;51.464;-0.066;2022-09-04T12:39:13;101487.91;;;23.36;58.97
60355;BME280;46198;51.464;-0.066;2022-09-04T12:41:55;101492.63;;;23.35;58.44
60355;BME280;46198;51.464;-0.066;2022-09-04T12:44:35;101488.66;;;23.47;58.52
60355;BME280;46198;51.464;-0.066;2022-09-04T12:47:14;101493.69;;;23.39;57.36
60355;BME280;46198;51.464;-0.066;2022-09-04T12:50:05;101497.94;;;23.32;57.67
60355;BME280;46198;51.464;-0.066;2022-09-04T12:52:59;101487.41;;;23.29;58.64
60355;BME280;46198;51.464;-0.066;2022-09-04T12:55:40;101492.69;;;23.25;58.01
60355;BME280;46198;51.464;-0.066;2022-09-04T12:58:20;101487.53;;;23.13;57.33
60355;BME280;46198;51.464;-0.066;2022-09-04T13:01:07;101492.75;;;23.20;58.03
60355;BME280;46198;51.464;-0.066;2022-09-04T13:03:42;101489.97;;;23.20;57.78
60355;BME280;46198;51.464;-0.066;2022-09-04T13:06:23;101498.25;;;23.25;58.81
60355;BME280;46198;51.464;-0.066;2022-09-04T13:09:06;101499.38;;;23.24;58.21
60355;BME280;46198;51.464;-0.066;2022-09-04T13:11:47;101505.38;;;23.31;58.82
60355;BME280;46198;51.464;-0.066;2022-09-04T13:14:57;101486.88;;;23.27;58.39
60355;BME280;46198;51.464;-0.066;2022-09-04T13:17:39;101489.41;;;23.18;57.20
60355;BME280;46198;51.464;-0.066;2022-09-04T13:20:17;101489.53;;;23.08;58.27
60355;BME280;46198;51.464;-0.066;2022-09-04T13:22:57;101488.41;;;23.09;58.73
60355;BME280;46198;51.464;-0.066;2022-09-04T13:25:37;101496.69;;;23.09;58.58
60355;BME280;46198;51.464;-0.066;2022-09-04T13:28:16;101486.44;;;23.09;59.44
60355;BME280;46198;51.464;-0.066;2022-09-04T13:30:53;101497.22;;;23.16;58.93
60355;BME280;46198;51.464;-0.066;2022-09-04T13:33:38;101487.19;;;23.20;58.86
60355;BME280;46198;51.464;-0.066;2022-09-04T13:36:24;101493.53;;;23.26;59.88
60355;BME280;46198;51.464;-0.066;2022-09-04T13:39:28;101497.69;;;23.23;59.40
60355;BME280;46198;51.464;-0.066;2022-09-04T13:45:08;101502.72;;;23.21;59.57
60355;BME280;46198;51.464;-0.066;2022-09-04T13:47:43;101492.50;;;23.16;58.84
60355;BME280;46198;51.464;-0.066;2022-09-04T13:50:20;101486.66;;;23.18;59.91
60355;BME280;46198;51.464;-0.066;2022-09-04T13:52:55;101490.50;;;23.22;59.60
60355;BME280;46198;51.464;-0.066;2022-09-04T13:55:27;101486.38;;;23.19;59.58
60355;BME280;46198;51.464;-0.066;2022-09-04T13:58:03;101491.69;;;23.16;60.02
60355;BME280;46198;51.464;-0.066;2022-09-04T14:00:43;101487.22;;;23.15;58.98
60355;BME280;46198;51.464;-0.066;2022-09-04T14:03:23;101496.06;;;23.22;58.97
60355;BME280;46198;51.464;-0.066;2022-09-04T14:05:53;101487.03;;;23.06;57.81
60355;BME280;46198;51.464;-0.066;2022-09-04T14:08:22;101488.00;;;23.20;59.11
60355;BME280;46198;51.464;-0.066;2022-09-04T14:11:21;101485.78;;;23.22;57.79
60355;BME280;46198;51.464;-0.066;2022-09-04T14:14:16;101480.44;;;23.31;58.26
60355;BME280;46198;51.464;-0.066;2022-09-04T14:16:52;101478.25;;;23.28;58.36
60355;BME280;46198;51.464;-0.066;2022-09-04T14:19:24;101474.16;;;23.20;59.12
60355;BME280;46198;51.464;-0.066;2022-09-04T14:22:15;101473.00;;;23.32;59.23
60355;BME280;46198;51.464;-0.066;2022-09-04T14:24:54;101467.44;;;23.32;58.41
60355;BME280;46198;51.464;-0.066;2022-09-04T14:27:29;101472.69;;;23.33;59.02
60355;BME280;46198;51.464;-0.066;2022-09-04T14:30:04;101464.97;;;23.30;57.95
60355;BME280;46198;51.464;-0.066;2022-09-04T14:32:54;101470.00;;;23.23;58.07
60355;BME280;46198;51.464;-0.066;2022-09-04T14:35:35;101462.81;;;23.22;57.97
60355;BME280;46198;51.464;-0.066;2022-09-04T14:38:27;101465.63;;;23.17;58.65
60355;BME280;46198;51.464;-0.066;2022-09-04T14:41:10;101466.59;;;23.31;59.16
60355;BME280;46198;51.464;-0.066;2022-09-04T14:43:48;101464.97;;;23.30;59.10
60355;BME280;46198;51.464;-0.066;2022-09-04T14:46:33;101473.19;;;23.40;58.88
60355;BME280;46198;51.464;-0.066;2022-09-04T14:49:07;101458.59;;;23.30;59.11
60355;BME280;46198;51.464;-0.066;2022-09-04T14:51:39;101467.09;;;23.38;58.59
60355;BME280;46198;51.464;-0.066;2022-09-04T14:54:14;101460.50;;;23.34;58.15
60355;BME280;46198;51.464;-0.066;2022-09-04T14:56:45;101466.41;;;23.22;58.49
60355;BME280;46198;51.464;-0.066;2022-09-04T14:59:19;101468.84;;;23.29;59.22
60355;BME280;46198;51.464;-0.066;2022-09-04T15:01:58;101470.84;;;23.23;58.18
60355;BME280;46198;51.464;-0.066;2022-09-04T15:04:32;101466.59;;;23.31;59.03
60355;BME280;46198;51.464;-0.066;2022-09-04T15:07:21;101467.50;;;23.27;56.91
60355;BME280;46198;51.464;-0.066;2022-09-04T15:10:05;101470.00;;;23.23;57.16
60355;BME280;46198;51.464;-0.066;2022-09-04T15:12:39;101459.44;;;23.25;56.95
60355;BME280;46198;51.464;-0.066;2022-09-04T15:15:14;101460.63;;;23.19;56.33
60355;BME280;46198;51.464;-0.066;2022-09-04T15:17:46;101453.47;;;23.13;56.43
60355;BME280;46198;51.464;-0.066;2022-09-04T15:20:21;101455.16;;;23.09;56.92
60355;BME280;46198;51.464;-0.066;2022-09-04T15:22:53;101455.78;;;23.00;56.11